sensor_id;sensor_type;location;lat;lon;timestamp;P1;durP1;ratioP1;P2;durP2;ratioP2
49998;SDS011;68071;45.062;7.356;2023-06-10T00:02:32;15.63;;;11.80;;
49998;SDS011;68071;45.062;7.356;2023-06-10T00:05:36;10.75;;;9.75;;
49998;SDS011;68071;45.062;7.356;2023-06-10T00:08:42;13.48;;;10.60;;
49998;SDS011;68071;45.062;7.356;2023-06-10T00:11:47;11.18;;;10.10;;
49998;SDS011;68071;45.062;7.356;2023-06-10T00:14:51;11.88;;;10.60;;
49998;SDS011;68071;45.062;7.356;2023-06-10T00:17:57;13.63;;;12.32;;
49998;SDS011;68071;45.062;7.356;2023-06-10T00:21:01;13.68;;;12.30;;
49998;SDS011;68071;45.062;7.356;2023-06-10T00:24:08;12.85;;;11.57;;
49998;SDS011;68071;45.062;7.356;2023-06-10T00:27:15;13.52;;;12.23;;
49998;SDS011;68071;45.062;7.356;2023-06-10T00:30:20;13.48;;;11.88;;
49998;SDS011;68071;45.062;7.356;2023-06-10T00:33:25;13.35;;;11.98;;
49998;SDS011;68071;45.062;7.356;2023-06-10T00:36:29;13.32;;;11.95;;
49998;SDS011;68071;45.062;7.356;2023-06-10T00:39:34;13.43;;;12.13;;
49998;SDS011;68071;45.062;7.356;2023-06-10T00:42:38;13.25;;;11.95;;
49998;SDS011;68071;45.062;7.356;2023-06-10T00:45:42;12.85;;;11.65;;
49998;SDS011;68071;45.062;7.356;2023-06-10T00:48:46;12.35;;;11.15;;
49998;SDS011;68071;45.062;7.356;2023-06-10T00:51:51;12.77;;;11.43;;
49998;SDS011;68071;45.062;7.356;2023-06-10T00:54:56;12.70;;;11.40;;
49998;SDS011;68071;45.062;7.356;2023-06-10T00:58:00;13.00;;;11.68;;
49998;SDS011;68071;45.062;7.356;2023-06-10T01:01:05;13.07;;;11.57;;
49998;SDS011;68071;45.062;7.356;2023-06-10T01:04:09;12.32;;;11.00;;
49998;SDS011;68071;45.062;7.356;2023-06-10T01:10:37;12.02;;;10.65;;
49998;SDS011;68071;45.062;7.356;2023-06-10T01:13:44;12.90;;;11.60;;
49998;SDS011;68071;45.062;7.356;2023-06-10T01:16:49;14.85;;;12.50;;
49998;SDS011;68071;45.062;7.356;2023-06-10T01:19:56;14.30;;;12.82;;
49998;SDS011;68071;45.062;7.356;2023-06-10T01:23:01;14.07;;;12.57;;
49998;SDS011;68071;45.062;7.356;2023-06-10T01:26:07;12.55;;;11.35;;
49998;SDS011;68071;45.062;7.356;2023-06-10T01:29:15;13.50;;;12.10;;
49998;SDS011;68071;45.062;7.356;2023-06-10T01:32:27;12.07;;;10.98;;
49998;SDS011;68071;45.062;7.356;2023-06-10T01:35:36;12.52;;;11.32;;
49998;SDS011;68071;45.062;7.356;2023-06-10T01:38:43;13.02;;;11.65;;
49998;SDS011;68071;45.062;7.356;2023-06-10T01:41:48;11.32;;;10.23;;
49998;SDS011;68071;45.062;7.356;2023-06-10T01:44:54;10.93;;;9.93;;
49998;SDS011;68071;45.062;7.356;2023-06-10T01:47:58;12.45;;;9.93;;
49998;SDS011;68071;45.062;7.356;2023-06-10T01:51:04;9.93;;;8.00;;
49998;SDS011;68071;45.062;7.356;2023-06-10T01:54:09;8.60;;;7.70;;
49998;SDS011;68071;45.062;7.356;2023-06-10T01:57:14;9.55;;;8.20;;
49998;SDS011;68071;45.062;7.356;2023-06-10T02:00:19;14.07;;;11.82;;
49998;SDS011;68071;45.062;7.356;2023-06-10T02:03:23;12.30;;;11.10;;
49998;SDS011;68071;45.062;7.356;2023-06-10T02:06:27;14.95;;;13.02;;
49998;SDS011;68071;45.062;7.356;2023-06-10T02:09:31;13.05;;;11.30;;
49998;SDS011;68071;45.062;7.356;2023-06-10T02:12:38;13.70;;;11.40;;
49998;SDS011;68071;45.062;7.356;2023-06-10T02:15:43;11.77;;;9.80;;
49998;SDS011;68071;45.062;7.356;2023-06-10T02:18:47;10.95;;;9.60;;
49998;SDS011;68071;45.062;7.356;2023-06-10T02:21:52;10.95;;;9.80;;
49998;SDS011;68071;45.062;7.356;2023-06-10T02:24:56;10.57;;;9.57;;
49998;SDS011;68071;45.062;7.356;2023-06-10T02:28:01;11.55;;;10.35;;
49998;SDS011;68071;45.062;7.356;2023-06-10T02:31:07;12.00;;;10.88;;
49998;SDS011;68071;45.062;7.356;2023-06-10T02:34:12;14.00;;;12.60;;
49998;SDS011;68071;45.062;7.356;2023-06-10T02:37:15;13.57;;;12.18;;
49998;SDS011;68071;45.062;7.356;2023-06-10T02:40:20;13.55;;;12.25;;
49998;SDS011;68071;45.062;7.356;2023-06-10T02:43:24;13.43;;;12.13;;
49998;SDS011;68071;45.062;7.356;2023-06-10T02:46:29;12.20;;;10.75;;
49998;SDS011;68071;45.062;7.356;2023-06-10T02:49:33;12.88;;;11.63;;
49998;SDS011;68071;45.062;7.356;2023-06-10T02:52:38;13.25;;;11.95;;
49998;SDS011;68071;45.062;7.356;2023-06-10T02:55:43;12.30;;;11.00;;
49998;SDS011;68071;45.062;7.356;2023-06-10T02:58:50;12.57;;;11.13;;
49998;SDS011;68071;45.062;7.356;2023-06-10T03:01:56;11.10;;;10.00;;
49998;SDS011;68071;45.062;7.356;2023-06-10T03:05:02;12.60;;;10.05;;
49998;SDS011;68071;45.062;7.356;2023-06-10T03:08:07;11.23;;;10.05;;
49998;SDS011;68071;45.062;7.356;2023-06-10T03:11:14;9.57;;;8.57;;
49998;SDS011;68071;45.062;7.356;2023-06-10T03:14:19;10.43;;;9.35;;
49998;SDS011;68071;45.062;7.356;2023-06-10T03:17:23;10.68;;;9.43;;
49998;SDS011;68071;45.062;7.356;2023-06-10T03:20:27;11.02;;;9.60;;
49998;SDS011;68071;45.062;7.356;2023-06-10T03:23:32;10.67;;;9.67;;
49998;SDS011;68071;45.062;7.356;2023-06-10T03:26:38;11.68;;;10.48;;
49998;SDS011;68071;45.062;7.356;2023-06-10T03:29:44;9.68;;;8.88;;
49998;SDS011;68071;45.062;7.356;2023-06-10T03:32:48;12.02;;;9.55;;
49998;SDS011;68071;45.062;7.356;2023-06-10T03:35:55;11.00;;;10.00;;
49998;SDS011;68071;45.062;7.356;2023-06-10T03:39:00;12.05;;;10.85;;
49998;SDS011;68071;45.062;7.356;2023-06-10T03:42:04;11.45;;;10.35;;
49998;SDS011;68071;45.062;7.356;2023-06-10T03:45:10;11.60;;;10.43;;
49998;SDS011;68071;45.062;7.356;2023-06-10T03:48:15;13.63;;;11.43;;
49998;SDS011;68071;45.062;7.356;2023-06-10T03:51:24;12.30;;;11.10;;
49998;SDS011;68071;45.062;7.356;2023-06-10T03:54:28;11.48;;;10.00;;
49998;SDS011;68071;45.062;7.356;2023-06-10T03:57:33;10.60;;;9.60;;
49998;SDS011;68071;45.062;7.356;2023-06-10T04:00:37;9.80;;;8.55;;
49998;SDS011;68071;45.062;7.356;2023-06-10T04:03:45;8.80;;;7.65;;
49998;SDS011;68071;45.062;7.356;2023-06-10T04:06:49;9.90;;;8.55;;
49998;SDS011;68071;45.062;7.356;2023-06-10T04:09:53;10.27;;;9.15;;
49998;SDS011;68071;45.062;7.356;2023-06-10T04:12:57;11.55;;;10.23;;
49998;SDS011;68071;45.062;7.356;2023-06-10T04:16:06;11.45;;;10.23;;
49998;SDS011;68071;45.062;7.356;2023-06-10T04:19:09;10.02;;;9.00;;
49998;SDS011;68071;45.062;7.356;2023-06-10T04:22:15;10.75;;;9.52;;
49998;SDS011;68071;45.062;7.356;2023-06-10T04:25:19;12.55;;;11.35;;
49998;SDS011;68071;45.062;7.356;2023-06-10T04:28:26;10.20;;;9.27;;
49998;SDS011;68071;45.062;7.356;2023-06-10T04:31:30;9.45;;;8.55;;
49998;SDS011;68071;45.062;7.356;2023-06-10T04:34:36;8.68;;;7.88;;
49998;SDS011;68071;45.062;7.356;2023-06-10T04:37:44;11.30;;;8.70;;
49998;SDS011;68071;45.062;7.356;2023-06-10T04:40:49;9.20;;;8.30;;
49998;SDS011;68071;45.062;7.356;2023-06-10T04:43:54;10.00;;;9.02;;
49998;SDS011;68071;45.062;7.356;2023-06-10T04:46:57;9.57;;;8.68;;
49998;SDS011;68071;45.062;7.356;2023-06-10T04:50:02;8.77;;;7.88;;
49998;SDS011;68071;45.062;7.356;2023-06-10T04:56:14;8.50;;;7.65;;
49998;SDS011;68071;45.062;7.356;2023-06-10T04:59:19;7.60;;;6.90;;
49998;SDS011;68071;45.062;7.356;2023-06-10T05:02:23;8.93;;;8.02;;
49998;SDS011;68071;45.062;7.356;2023-06-10T05:05:27;11.65;;;8.10;;
49998;SDS011;68071;45.062;7.356;2023-06-10T05:08:31;9.43;;;8.50;;
49998;SDS011;68071;45.062;7.356;2023-06-10T05:11:35;8.40;;;7.60;;
49998;SDS011;68071;45.062;7.356;2023-06-10T05:14:39;7.78;;;7.07;;
49998;SDS011;68071;45.062;7.356;2023-06-10T05:17:43;7.78;;;7.03;;
49998;SDS011;68071;45.062;7.356;2023-06-10T05:20:47;8.95;;;8.05;;
49998;SDS011;68071;45.062;7.356;2023-06-10T05:23:52;9.85;;;8.88;;
49998;SDS011;68071;45.062;7.356;2023-06-10T05:26:57;8.97;;;8.00;;
49998;SDS011;68071;45.062;7.356;2023-06-10T05:30:01;9.30;;;8.40;;
49998;SDS011;68071;45.062;7.356;2023-06-10T05:33:07;10.57;;;9.13;;
49998;SDS011;68071;45.062;7.356;2023-06-10T05:36:11;10.73;;;9.20;;
49998;SDS011;68071;45.062;7.356;2023-06-10T05:39:15;10.05;;;8.80;;
49998;SDS011;68071;45.062;7.356;2023-06-10T05:42:19;9.38;;;8.35;;
49998;SDS011;68071;45.062;7.356;2023-06-10T05:45:23;8.57;;;7.68;;
49998;SDS011;68071;45.062;7.356;2023-06-10T05:48:27;6.20;;;5.60;;
49998;SDS011;68071;45.062;7.356;2023-06-10T05:51:31;6.68;;;6.07;;
49998;SDS011;68071;45.062;7.356;2023-06-10T05:54:35;6.47;;;5.93;;
49998;SDS011;68071;45.062;7.356;2023-06-10T05:57:40;6.70;;;6.00;;
49998;SDS011;68071;45.062;7.356;2023-06-10T06:00:45;6.70;;;6.10;;
49998;SDS011;68071;45.062;7.356;2023-06-10T06:03:49;11.80;;;10.40;;
49998;SDS011;68071;45.062;7.356;2023-06-10T06:06:53;33.70;;;28.48;;
49998;SDS011;68071;45.062;7.356;2023-06-10T06:09:57;19.73;;;17.63;;
49998;SDS011;68071;45.062;7.356;2023-06-10T06:13:01;15.10;;;13.65;;
49998;SDS011;68071;45.062;7.356;2023-06-10T06:16:05;10.73;;;9.52;;
49998;SDS011;68071;45.062;7.356;2023-06-10T06:19:09;9.90;;;8.90;;
49998;SDS011;68071;45.062;7.356;2023-06-10T06:22:14;7.53;;;6.82;;
49998;SDS011;68071;45.062;7.356;2023-06-10T06:25:19;9.30;;;8.40;;
49998;SDS011;68071;45.062;7.356;2023-06-10T06:28:22;8.10;;;7.30;;
49998;SDS011;68071;45.062;7.356;2023-06-10T06:31:32;8.60;;;7.80;;
49998;SDS011;68071;45.062;7.356;2023-06-10T06:34:36;9.45;;;7.78;;
49998;SDS011;68071;45.062;7.356;2023-06-10T06:37:40;8.68;;;7.75;;
49998;SDS011;68071;45.062;7.356;2023-06-10T06:40:54;8.60;;;7.80;;
49998;SDS011;68071;45.062;7.356;2023-06-10T06:43:58;9.65;;;8.75;;
49998;SDS011;68071;45.062;7.356;2023-06-10T06:47:07;9.65;;;8.75;;
49998;SDS011;68071;45.062;7.356;2023-06-10T06:50:11;12.25;;;10.95;;
49998;SDS011;68071;45.062;7.356;2023-06-10T06:53:15;7.50;;;6.75;;
49998;SDS011;68071;45.062;7.356;2023-06-10T06:56:19;7.63;;;6.93;;
49998;SDS011;68071;45.062;7.356;2023-06-10T06:59:25;7.28;;;6.68;;
49998;SDS011;68071;45.062;7.356;2023-06-10T07:02:29;8.68;;;7.72;;
49998;SDS011;68071;45.062;7.356;2023-06-10T07:05:35;7.57;;;6.88;;
49998;SDS011;68071;45.062;7.356;2023-06-10T07:08:39;8.00;;;7.20;;
49998;SDS011;68071;45.062;7.356;2023-06-10T07:11:43;7.18;;;6.53;;
49998;SDS011;68071;45.062;7.356;2023-06-10T07:14:47;7.10;;;6.45;;
49998;SDS011;68071;45.062;7.356;2023-06-10T07:17:51;11.07;;;9.27;;
49998;SDS011;68071;45.062;7.356;2023-06-10T07:20:56;10.27;;;9.13;;
49998;SDS011;68071;45.062;7.356;2023-06-10T07:24:00;8.45;;;7.65;;
49998;SDS011;68071;45.062;7.356;2023-06-10T07:27:03;11.15;;;8.85;;
49998;SDS011;68071;45.062;7.356;2023-06-10T07:30:09;8.68;;;7.82;;
49998;SDS011;68071;45.062;7.356;2023-06-10T07:33:14;8.32;;;7.53;;
49998;SDS011;68071;45.062;7.356;2023-06-10T07:36:18;17.92;;;15.30;;
49998;SDS011;68071;45.062;7.356;2023-06-10T07:39:22;11.13;;;9.95;;
49998;SDS011;68071;45.062;7.356;2023-06-10T07:42:26;11.32;;;10.25;;
49998;SDS011;68071;45.062;7.356;2023-06-10T07:45:30;11.23;;;9.25;;
49998;SDS011;68071;45.062;7.356;2023-06-10T07:48:34;9.77;;;8.82;;
49998;SDS011;68071;45.062;7.356;2023-06-10T07:51:38;9.65;;;8.68;;
49998;SDS011;68071;45.062;7.356;2023-06-10T07:54:42;12.00;;;10.50;;
49998;SDS011;68071;45.062;7.356;2023-06-10T07:57:46;8.57;;;7.68;;
49998;SDS011;68071;45.062;7.356;2023-06-10T08:00:50;13.32;;;11.95;;
49998;SDS011;68071;45.062;7.356;2023-06-10T08:03:54;16.35;;;14.15;;
49998;SDS011;68071;45.062;7.356;2023-06-10T08:06:58;8.55;;;7.75;;
49998;SDS011;68071;45.062;7.356;2023-06-10T08:10:02;8.02;;;7.13;;
49998;SDS011;68071;45.062;7.356;2023-06-10T08:13:08;10.43;;;9.50;;
49998;SDS011;68071;45.062;7.356;2023-06-10T08:16:12;9.60;;;8.27;;
49998;SDS011;68071;45.062;7.356;2023-06-10T08:19:16;9.40;;;8.40;;
49998;SDS011;68071;45.062;7.356;2023-06-10T08:22:21;8.33;;;7.63;;
49998;SDS011;68071;45.062;7.356;2023-06-10T08:25:25;6.18;;;5.60;;
49998;SDS011;68071;45.062;7.356;2023-06-10T08:28:29;6.57;;;5.97;;
49998;SDS011;68071;45.062;7.356;2023-06-10T08:31:36;7.38;;;6.60;;
49998;SDS011;68071;45.062;7.356;2023-06-10T08:34:40;7.15;;;6.45;;
49998;SDS011;68071;45.062;7.356;2023-06-10T08:37:44;7.70;;;6.82;;
49998;SDS011;68071;45.062;7.356;2023-06-10T08:40:48;8.45;;;7.65;;
49998;SDS011;68071;45.062;7.356;2023-06-10T08:43:59;9.85;;;8.10;;
49998;SDS011;68071;45.062;7.356;2023-06-10T08:47:14;8.85;;;7.78;;
49998;SDS011;68071;45.062;7.356;2023-06-10T08:50:21;6.55;;;5.95;;
49998;SDS011;68071;45.062;7.356;2023-06-10T08:53:26;8.63;;;7.78;;
49998;SDS011;68071;45.062;7.356;2023-06-10T08:56:34;9.48;;;7.53;;
49998;SDS011;68071;45.062;7.356;2023-06-10T08:59:42;8.88;;;7.95;;
49998;SDS011;68071;45.062;7.356;2023-06-10T09:02:47;10.93;;;9.80;;
49998;SDS011;68071;45.062;7.356;2023-06-10T09:05:51;12.27;;;10.97;;
49998;SDS011;68071;45.062;7.356;2023-06-10T09:08:57;10.60;;;8.98;;
49998;SDS011;68071;45.062;7.356;2023-06-10T09:12:01;13.40;;;9.32;;
49998;SDS011;68071;45.062;7.356;2023-06-10T09:15:05;11.63;;;10.52;;
49998;SDS011;68071;45.062;7.356;2023-06-10T09:18:10;9.43;;;8.20;;
49998;SDS011;68071;45.062;7.356;2023-06-10T09:21:14;10.55;;;9.35;;
49998;SDS011;68071;45.062;7.356;2023-06-10T09:24:18;10.30;;;9.40;;
49998;SDS011;68071;45.062;7.356;2023-06-10T09:30:28;11.60;;;10.50;;
49998;SDS011;68071;45.062;7.356;2023-06-10T09:33:36;11.32;;;10.15;;
49998;SDS011;68071;45.062;7.356;2023-06-10T09:36:43;10.80;;;9.70;;
49998;SDS011;68071;45.062;7.356;2023-06-10T09:40:03;10.02;;;9.13;;
49998;SDS011;68071;45.062;7.356;2023-06-10T09:43:09;10.27;;;9.13;;
49998;SDS011;68071;45.062;7.356;2023-06-10T09:46:17;11.25;;;10.10;;
49998;SDS011;68071;45.062;7.356;2023-06-10T09:49:21;12.02;;;10.82;;
49998;SDS011;68071;45.062;7.356;2023-06-10T09:52:26;13.02;;;11.82;;
49998;SDS011;68071;45.062;7.356;2023-06-10T09:55:32;15.63;;;12.75;;
49998;SDS011;68071;45.062;7.356;2023-06-10T09:58:37;15.65;;;14.02;;
49998;SDS011;68071;45.062;7.356;2023-06-10T10:01:42;16.70;;;15.00;;
49998;SDS011;68071;45.062;7.356;2023-06-10T10:04:46;15.52;;;13.98;;
49998;SDS011;68071;45.062;7.356;2023-06-10T10:07:51;16.88;;;15.07;;
49998;SDS011;68071;45.062;7.356;2023-06-10T10:10:56;15.02;;;13.60;;
49998;SDS011;68071;45.062;7.356;2023-06-10T10:17:08;15.32;;;13.55;;
49998;SDS011;68071;45.062;7.356;2023-06-10T10:20:14;15.10;;;13.50;;
49998;SDS011;68071;45.062;7.356;2023-06-10T10:23:31;14.90;;;13.43;;
49998;SDS011;68071;45.062;7.356;2023-06-10T10:29:43;15.02;;;13.63;;
49998;SDS011;68071;45.062;7.356;2023-06-10T10:32:58;15.57;;;14.05;;
49998;SDS011;68071;45.062;7.356;2023-06-10T10:36:08;15.32;;;13.73;;
49998;SDS011;68071;45.062;7.356;2023-06-10T10:39:13;11.45;;;10.38;;
49998;SDS011;68071;45.062;7.356;2023-06-10T10:42:17;10.32;;;9.20;;
49998;SDS011;68071;45.062;7.356;2023-06-10T10:45:22;11.20;;;10.10;;
49998;SDS011;68071;45.062;7.356;2023-06-10T10:48:27;11.95;;;10.75;;
49998;SDS011;68071;45.062;7.356;2023-06-10T10:51:38;9.13;;;8.23;;
49998;SDS011;68071;45.062;7.356;2023-06-10T10:54:58;10.85;;;9.48;;
49998;SDS011;68071;45.062;7.356;2023-06-10T10:58:06;11.10;;;10.00;;
49998;SDS011;68071;45.062;7.356;2023-06-10T11:01:11;10.57;;;9.57;;
49998;SDS011;68071;45.062;7.356;2023-06-10T11:04:18;11.43;;;8.80;;
49998;SDS011;68071;45.062;7.356;2023-06-10T11:07:24;9.23;;;8.32;;
49998;SDS011;68071;45.062;7.356;2023-06-10T11:10:29;7.72;;;7.03;;
49998;SDS011;68071;45.062;7.356;2023-06-10T11:13:37;7.05;;;6.35;;
49998;SDS011;68071;45.062;7.356;2023-06-10T11:16:42;5.25;;;4.63;;
49998;SDS011;68071;45.062;7.356;2023-06-10T11:19:47;4.78;;;4.38;;
49998;SDS011;68071;45.062;7.356;2023-06-10T11:23:02;4.10;;;3.70;;
49998;SDS011;68071;45.062;7.356;2023-06-10T11:29:17;6.07;;;4.68;;
49998;SDS011;68071;45.062;7.356;2023-06-10T11:32:22;5.13;;;3.83;;
49998;SDS011;68071;45.062;7.356;2023-06-10T11:35:27;4.10;;;3.70;;
49998;SDS011;68071;45.062;7.356;2023-06-10T11:38:32;5.18;;;4.68;;
49998;SDS011;68071;45.062;7.356;2023-06-10T11:41:36;5.85;;;4.70;;
49998;SDS011;68071;45.062;7.356;2023-06-10T11:44:47;4.70;;;4.18;;
49998;SDS011;68071;45.062;7.356;2023-06-10T11:47:56;3.83;;;3.53;;
49998;SDS011;68071;45.062;7.356;2023-06-10T11:51:07;5.05;;;3.40;;
49998;SDS011;68071;45.062;7.356;2023-06-10T11:54:11;2.95;;;2.70;;
49998;SDS011;68071;45.062;7.356;2023-06-10T11:57:15;4.53;;;3.53;;
49998;SDS011;68071;45.062;7.356;2023-06-10T12:00:19;4.68;;;3.83;;
49998;SDS011;68071;45.062;7.356;2023-06-10T12:03:23;3.45;;;3.15;;
49998;SDS011;68071;45.062;7.356;2023-06-10T12:06:37;3.35;;;3.05;;
49998;SDS011;68071;45.062;7.356;2023-06-10T12:09:46;4.80;;;4.38;;
49998;SDS011;68071;45.062;7.356;2023-06-10T12:12:50;4.93;;;4.50;;
49998;SDS011;68071;45.062;7.356;2023-06-10T12:15:53;4.07;;;3.78;;
49998;SDS011;68071;45.062;7.356;2023-06-10T12:19:07;4.45;;;3.75;;
49998;SDS011;68071;45.062;7.356;2023-06-10T12:22:11;4.28;;;3.83;;
49998;SDS011;68071;45.062;7.356;2023-06-10T12:25:15;3.88;;;3.58;;
49998;SDS011;68071;45.062;7.356;2023-06-10T12:28:22;3.83;;;3.47;;
49998;SDS011;68071;45.062;7.356;2023-06-10T12:31:27;6.20;;;4.90;;
49998;SDS011;68071;45.062;7.356;2023-06-10T12:34:35;5.63;;;4.57;;
49998;SDS011;68071;45.062;7.356;2023-06-10T12:37:41;4.30;;;3.40;;
49998;SDS011;68071;45.062;7.356;2023-06-10T12:40:45;4.17;;;3.30;;
49998;SDS011;68071;45.062;7.356;2023-06-10T12:43:49;3.35;;;3.05;;
49998;SDS011;68071;45.062;7.356;2023-06-10T12:46:56;4.30;;;3.90;;
49998;SDS011;68071;45.062;7.356;2023-06-10T12:50:01;3.47;;;3.17;;
49998;SDS011;68071;45.062;7.356;2023-06-10T12:53:07;4.82;;;3.80;;
49998;SDS011;68071;45.062;7.356;2023-06-10T12:56:12;4.13;;;3.63;;
49998;SDS011;68071;45.062;7.356;2023-06-10T12:59:16;4.82;;;3.30;;
49998;SDS011;68071;45.062;7.356;2023-06-10T13:02:21;4.05;;;3.50;;
49998;SDS011;68071;45.062;7.356;2023-06-10T13:05:27;5.05;;;3.50;;
49998;SDS011;68071;45.062;7.356;2023-06-10T13:08:31;4.43;;;3.27;;
49998;SDS011;68071;45.062;7.356;2023-06-10T13:11:36;3.60;;;3.00;;
49998;SDS011;68071;45.062;7.356;2023-06-10T13:14:40;3.67;;;3.38;;
49998;SDS011;68071;45.062;7.356;2023-06-10T13:17:44;4.13;;;3.80;;
49998;SDS011;68071;45.062;7.356;2023-06-10T13:20:50;4.32;;;3.72;;
49998;SDS011;68071;45.062;7.356;2023-06-10T13:23:53;4.38;;;3.90;;
49998;SDS011;68071;45.062;7.356;2023-06-10T13:26:57;5.90;;;4.97;;
49998;SDS011;68071;45.062;7.356;2023-06-10T13:30:02;4.50;;;4.10;;
49998;SDS011;68071;45.062;7.356;2023-06-10T13:33:07;8.35;;;7.00;;
49998;SDS011;68071;45.062;7.356;2023-06-10T13:36:11;11.55;;;10.35;;
49998;SDS011;68071;45.062;7.356;2023-06-10T13:39:16;5.95;;;4.95;;
49998;SDS011;68071;45.062;7.356;2023-06-10T13:42:19;5.45;;;4.80;;
49998;SDS011;68071;45.062;7.356;2023-06-10T13:45:24;7.97;;;6.40;;
49998;SDS011;68071;45.062;7.356;2023-06-10T13:48:28;5.47;;;4.97;;
49998;SDS011;68071;45.062;7.356;2023-06-10T13:51:32;5.25;;;4.40;;
49998;SDS011;68071;45.062;7.356;2023-06-10T13:54:36;4.38;;;3.97;;
49998;SDS011;68071;45.062;7.356;2023-06-10T13:57:40;5.15;;;4.65;;
49998;SDS011;68071;45.062;7.356;2023-06-10T14:00:44;5.45;;;4.95;;
49998;SDS011;68071;45.062;7.356;2023-06-10T14:03:49;6.18;;;5.13;;
49998;SDS011;68071;45.062;7.356;2023-06-10T14:06:53;5.50;;;4.70;;
49998;SDS011;68071;45.062;7.356;2023-06-10T14:09:57;5.57;;;5.07;;
49998;SDS011;68071;45.062;7.356;2023-06-10T14:13:02;5.18;;;4.45;;
49998;SDS011;68071;45.062;7.356;2023-06-10T14:16:06;4.72;;;4.20;;
49998;SDS011;68071;45.062;7.356;2023-06-10T14:19:10;4.97;;;4.15;;
49998;SDS011;68071;45.062;7.356;2023-06-10T14:22:14;4.63;;;3.83;;
49998;SDS011;68071;45.062;7.356;2023-06-10T14:25:18;6.70;;;4.72;;
49998;SDS011;68071;45.062;7.356;2023-06-10T14:28:22;5.90;;;5.30;;
49998;SDS011;68071;45.062;7.356;2023-06-10T14:31:27;6.93;;;6.22;;
49998;SDS011;68071;45.062;7.356;2023-06-10T14:34:32;6.78;;;6.05;;
49998;SDS011;68071;45.062;7.356;2023-06-10T14:37:37;7.10;;;6.30;;
49998;SDS011;68071;45.062;7.356;2023-06-10T14:40:41;6.70;;;6.10;;
49998;SDS011;68071;45.062;7.356;2023-06-10T14:43:45;5.93;;;5.28;;
49998;SDS011;68071;45.062;7.356;2023-06-10T14:46:49;5.22;;;4.72;;
49998;SDS011;68071;45.062;7.356;2023-06-10T14:49:53;5.70;;;5.10;;
49998;SDS011;68071;45.062;7.356;2023-06-10T14:52:58;5.10;;;4.60;;
49998;SDS011;68071;45.062;7.356;2023-06-10T14:56:02;5.90;;;4.97;;
49998;SDS011;68071;45.062;7.356;2023-06-10T14:59:07;5.93;;;5.00;;
49998;SDS011;68071;45.062;7.356;2023-06-10T15:02:11;5.22;;;4.72;;
49998;SDS011;68071;45.062;7.356;2023-06-10T15:05:15;5.13;;;4.63;;
49998;SDS011;68071;45.062;7.356;2023-06-10T15:11:24;3.15;;;2.85;;
49998;SDS011;68071;45.062;7.356;2023-06-10T15:14:28;3.45;;;2.92;;
49998;SDS011;68071;45.062;7.356;2023-06-10T15:17:32;4.30;;;2.83;;
49998;SDS011;68071;45.062;7.356;2023-06-10T15:20:37;5.55;;;3.05;;
49998;SDS011;68071;45.062;7.356;2023-06-10T15:23:41;2.97;;;2.58;;
49998;SDS011;68071;45.062;7.356;2023-06-10T15:26:45;3.95;;;2.45;;
49998;SDS011;68071;45.062;7.356;2023-06-10T15:29:49;2.50;;;2.30;;
49998;SDS011;68071;45.062;7.356;2023-06-10T15:32:53;2.55;;;2.08;;
49998;SDS011;68071;45.062;7.356;2023-06-10T15:35:57;2.90;;;1.60;;
49998;SDS011;68071;45.062;7.356;2023-06-10T15:39:02;2.90;;;1.60;;
49998;SDS011;68071;45.062;7.356;2023-06-10T15:42:09;3.58;;;2.40;;
49998;SDS011;68071;45.062;7.356;2023-06-10T15:45:13;2.38;;;1.88;;
49998;SDS011;68071;45.062;7.356;2023-06-10T15:48:17;3.25;;;2.17;;
49998;SDS011;68071;45.062;7.356;2023-06-10T15:51:22;2.53;;;1.83;;
49998;SDS011;68071;45.062;7.356;2023-06-10T15:54:26;2.47;;;2.15;;
49998;SDS011;68071;45.062;7.356;2023-06-10T15:57:31;2.95;;;2.20;;
49998;SDS011;68071;45.062;7.356;2023-06-10T16:00:34;2.85;;;2.08;;
49998;SDS011;68071;45.062;7.356;2023-06-10T16:03:38;2.53;;;2.13;;
49998;SDS011;68071;45.062;7.356;2023-06-10T16:06:42;2.08;;;1.85;;
49998;SDS011;68071;45.062;7.356;2023-06-10T16:09:46;2.85;;;2.17;;
49998;SDS011;68071;45.062;7.356;2023-06-10T16:12:50;3.38;;;1.98;;
49998;SDS011;68071;45.062;7.356;2023-06-10T16:15:55;2.17;;;1.90;;
49998;SDS011;68071;45.062;7.356;2023-06-10T16:19:00;2.42;;;1.77;;
49998;SDS011;68071;45.062;7.356;2023-06-10T16:22:04;2.28;;;1.95;;
49998;SDS011;68071;45.062;7.356;2023-06-10T16:25:08;2.65;;;1.80;;
49998;SDS011;68071;45.062;7.356;2023-06-10T16:28:12;2.85;;;2.08;;
49998;SDS011;68071;45.062;7.356;2023-06-10T16:31:16;2.53;;;2.30;;
49998;SDS011;68071;45.062;7.356;2023-06-10T16:34:20;2.38;;;1.92;;
49998;SDS011;68071;45.062;7.356;2023-06-10T16:37:25;4.05;;;2.25;;
49998;SDS011;68071;45.062;7.356;2023-06-10T16:40:29;3.60;;;2.35;;
49998;SDS011;68071;45.062;7.356;2023-06-10T16:43:33;4.30;;;2.88;;
49998;SDS011;68071;45.062;7.356;2023-06-10T16:46:38;3.05;;;2.20;;
49998;SDS011;68071;45.062;7.356;2023-06-10T16:49:42;4.03;;;2.70;;
49998;SDS011;68071;45.062;7.356;2023-06-10T16:52:46;4.57;;;3.03;;
49998;SDS011;68071;45.062;7.356;2023-06-10T16:55:49;5.30;;;2.55;;
49998;SDS011;68071;45.062;7.356;2023-06-10T16:58:53;2.78;;;2.50;;
49998;SDS011;68071;45.062;7.356;2023-06-10T17:01:57;2.97;;;2.03;;
49998;SDS011;68071;45.062;7.356;2023-06-10T17:05:01;3.72;;;2.50;;
49998;SDS011;68071;45.062;7.356;2023-06-10T17:08:06;2.95;;;2.65;;
49998;SDS011;68071;45.062;7.356;2023-06-10T17:11:10;5.50;;;2.75;;
49998;SDS011;68071;45.062;7.356;2023-06-10T17:14:15;3.63;;;2.70;;
49998;SDS011;68071;45.062;7.356;2023-06-10T17:17:19;3.55;;;2.70;;
49998;SDS011;68071;45.062;7.356;2023-06-10T17:20:23;3.15;;;2.75;;
49998;SDS011;68071;45.062;7.356;2023-06-10T17:23:27;3.72;;;2.40;;
49998;SDS011;68071;45.062;7.356;2023-06-10T17:26:31;4.35;;;2.58;;
49998;SDS011;68071;45.062;7.356;2023-06-10T17:29:35;3.60;;;2.33;;
49998;SDS011;68071;45.062;7.356;2023-06-10T17:32:39;6.70;;;3.10;;
49998;SDS011;68071;45.062;7.356;2023-06-10T17:35:44;9.25;;;7.32;;
49998;SDS011;68071;45.062;7.356;2023-06-10T17:38:47;5.18;;;3.08;;
49998;SDS011;68071;45.062;7.356;2023-06-10T17:41:52;3.30;;;2.70;;
49998;SDS011;68071;45.062;7.356;2023-06-10T17:44:56;2.90;;;2.50;;
49998;SDS011;68071;45.062;7.356;2023-06-10T17:48:00;3.72;;;3.03;;
49998;SDS011;68071;45.062;7.356;2023-06-10T17:51:04;4.13;;;2.97;;
49998;SDS011;68071;45.062;7.356;2023-06-10T17:54:08;4.88;;;3.15;;
49998;SDS011;68071;45.062;7.356;2023-06-10T17:57:13;3.38;;;3.08;;
49998;SDS011;68071;45.062;7.356;2023-06-10T18:00:17;4.90;;;3.30;;
49998;SDS011;68071;45.062;7.356;2023-06-10T18:03:21;6.43;;;4.40;;
49998;SDS011;68071;45.062;7.356;2023-06-10T18:06:30;4.35;;;3.80;;
49998;SDS011;68071;45.062;7.356;2023-06-10T18:09:37;5.35;;;4.15;;
49998;SDS011;68071;45.062;7.356;2023-06-10T18:12:41;4.50;;;3.95;;
49998;SDS011;68071;45.062;7.356;2023-06-10T18:15:45;5.45;;;4.28;;
49998;SDS011;68071;45.062;7.356;2023-06-10T18:18:49;5.43;;;4.25;;
49998;SDS011;68071;45.062;7.356;2023-06-10T18:21:53;6.90;;;4.47;;
49998;SDS011;68071;45.062;7.356;2023-06-10T18:24:58;5.78;;;3.90;;
49998;SDS011;68071;45.062;7.356;2023-06-10T18:28:02;6.25;;;4.15;;
49998;SDS011;68071;45.062;7.356;2023-06-10T18:31:06;6.00;;;4.53;;
49998;SDS011;68071;45.062;7.356;2023-06-10T18:34:10;5.57;;;4.28;;
49998;SDS011;68071;45.062;7.356;2023-06-10T18:37:14;5.15;;;4.65;;
49998;SDS011;68071;45.062;7.356;2023-06-10T18:40:20;4.82;;;4.30;;
49998;SDS011;68071;45.062;7.356;2023-06-10T18:43:24;6.07;;;4.65;;
49998;SDS011;68071;45.062;7.356;2023-06-10T18:46:28;4.85;;;4.45;;